Time;durP1;ratioP1;P1;durP2;ratioP2;P2;SDS_P1;SDS_P2;PMS_P1;PMS_P2;Temp;Humidity;BMP_temperature;BMP_pressure;BME280_temperature;BME280_humidity;BME280_pressure;Samples;Min_cycle;Max_cycle;Signal;HPM_P1;HPM_P2
2022/01/21 00:00:57;;;;;;;7.20;3.23;;;-1.20;99.90;;;;;;626351;226;26630;-75
2022/01/21 00:03:24;;;;;;;5.13;2.60;;;-1.20;99.90;;;;;;629334;225;27099;-75
2022/01/21 00:05:52;;;;;;;3.87;2.57;;;-1.30;99.90;;;;;;629559;226;26622;-75
2022/01/21 00:08:20;;;;;;;5.77;3.00;;;-1.30;99.90;;;;;;625337;226;26547;-75
2022/01/21 00:10:48;;;;;;;6.33;2.40;;;-1.30;99.90;;;;;;632590;226;26629;-75
2022/01/21 00:13:21;;;;;;;2.50;2.03;;;-1.30;99.90;;;;;;627360;225;26603;-75
2022/01/21 00:15:42;;;;;;;5.13;2.83;;;-1.30;99.90;;;;;;636684;225;26528;-75
2022/01/21 00:18:11;;;;;;;4.13;2.50;;;-1.30;99.90;;;;;;635223;225;26857;-76
2022/01/21 00:30:49;;;;;;;3.40;2.53;;;-1.40;99.90;;;;;;627966;225;26561;-75
2022/01/21 00:33:16;;;;;;;2.53;2.23;;;-1.40;99.90;;;;;;634772;226;26608;-73
2022/01/21 00:35:44;;;;;;;3.70;2.20;;;-1.40;99.90;;;;;;617974;228;26614;-73
2022/01/21 00:38:14;;;;;;;2.97;2.20;;;-1.40;99.90;;;;;;616427;230;26618;-73
2022/01/21 00:40:39;;;;;;;3.87;2.63;;;-1.40;99.90;;;;;;603130;235;26678;-73
2022/01/21 00:43:15;;;;;;;3.70;2.33;;;-1.40;99.90;;;;;;613561;228;26565;-73
2022/01/21 00:45:36;;;;;;;3.53;2.20;;;-1.40;99.90;;;;;;605011;234;26636;-73
2022/01/21 00:48:04;;;;;;;6.03;2.40;;;-1.40;99.90;;;;;;603285;238;26786;-73
2022/01/21 00:50:31;;;;;;;4.67;2.07;;;-1.50;99.90;;;;;;609939;235;26682;-73
2022/01/21 00:53:00;;;;;;;4.73;2.60;;;-1.50;99.90;;;;;;617604;230;26609;-73
2022/01/21 00:55:27;;;;;;;6.40;2.47;;;-1.50;99.90;;;;;;615793;227;26781;-73
2022/01/21 00:57:54;;;;;;;4.87;2.27;;;-1.50;99.90;;;;;;616510;231;26603;-73
2022/01/21 01:00:21;;;;;;;3.77;2.70;;;-1.50;99.90;;;;;;604761;235;26852;-73
2022/01/21 01:02:48;;;;;;;3.53;2.27;;;-1.50;99.90;;;;;;605248;237;26616;-73
2022/01/21 01:05:15;;;;;;;6.53;2.27;;;-1.50;99.90;;;;;;619396;230;27255;-73
2022/01/21 01:07:43;;;;;;;4.17;2.27;;;-1.50;99.90;;;;;;608286;235;26631;-73
2022/01/21 01:10:16;;;;;;;3.83;2.70;;;-1.50;99.90;;;;;;606906;235;26629;-73
2022/01/21 01:12:52;;;;;;;5.63;2.20;;;-1.60;99.90;;;;;;603282;236;26641;-73
2022/01/21 01:20:13;;;;;;;6.77;3.17;;;-1.50;99.90;;;;;;604589;235;26651;-73
2022/01/21 01:22:52;;;;;;;7.40;2.93;;;-1.60;99.90;;;;;;603263;238;26594;-73
2022/01/21 01:27:44;;;;;;;4.70;2.43;;;-1.50;99.90;;;;;;616933;231;26569;-73
2022/01/21 01:30:11;;;;;;;3.47;2.30;;;-1.50;99.90;;;;;;602475;236;26839;-73
2022/01/21 01:32:38;;;;;;;8.17;2.60;;;-1.60;99.90;;;;;;617535;231;26555;-73
2022/01/21 01:35:06;;;;;;;5.53;2.57;;;-1.60;99.90;;;;;;610452;235;26623;-73
2022/01/21 01:40:23;;;;;;;3.33;2.47;;;-1.60;99.90;;;;;;610745;233;26619;-73
2022/01/21 01:50:31;;;;;;;3.97;2.17;;;-1.60;99.90;;;;;;604624;235;26641;-72
2022/01/21 01:52:58;;;;;;;7.33;2.70;;;-1.60;99.90;;;;;;603119;237;26615;-73
2022/01/21 01:55:25;;;;;;;4.27;2.50;;;-1.60;99.90;;;;;;623448;230;26639;-73
2022/01/21 01:57:53;;;;;;;5.33;2.17;;;-1.70;99.90;;;;;;618509;231;27287;-73
2022/01/21 02:00:20;;;;;;;3.83;2.00;;;-1.70;99.90;;;;;;612745;233;26563;-73
2022/01/21 02:02:47;;;;;;;3.47;2.20;;;-1.70;99.90;;;;;;605562;234;26839;-72
2022/01/21 02:05:14;;;;;;;4.23;2.10;;;-1.70;99.90;;;;;;611401;234;26627;-72
2022/01/21 02:07:41;;;;;;;2.50;2.20;;;-1.70;99.90;;;;;;603989;237;26579;-73
2022/01/21 02:10:09;;;;;;;2.60;2.13;;;-1.70;99.90;;;;;;603425;236;26567;-73
2022/01/21 02:12:37;;;;;;;8.47;2.30;;;-1.70;99.90;;;;;;609082;236;26654;-73
2022/01/21 02:15:05;;;;;;;6.03;2.07;;;-1.70;99.90;;;;;;603229;235;26581;-73
2022/01/21 02:22:49;;;;;;;6.23;2.20;;;-1.80;99.90;;;;;;604796;235;26820;-73
2022/01/21 02:25:18;;;;;;;5.90;2.70;;;-1.80;99.90;;;;;;608218;232;26647;-73
2022/01/21 02:27:47;;;;;;;3.57;2.10;;;-1.80;99.90;;;;;;606390;236;26581;-73
2022/01/21 02:30:21;;;;;;;6.87;2.83;;;-1.80;99.90;;;;;;604067;236;27151;-73
2022/01/21 02:32:49;;;;;;;4.13;2.20;;;-1.80;99.90;;;;;;615195;231;26604;-73
2022/01/21 02:35:17;;;;;;;2.17;2.07;;;-1.80;99.90;;;;;;605686;235;26588;-72
2022/01/21 02:37:45;;;;;;;6.80;2.70;;;-1.80;99.90;;;;;;613865;230;26610;-73
2022/01/21 02:40:12;;;;;;;4.33;2.10;;;-1.90;99.90;;;;;;602999;233;26622;-73
2022/01/21 02:42:39;;;;;;;5.63;2.57;;;-1.80;99.90;;;;;;630102;225;26801;-73
2022/01/21 02:45:07;;;;;;;6.40;2.73;;;-1.90;99.90;;;;;;626453;225;26842;-72
2022/01/21 02:47:34;;;;;;;4.20;2.57;;;-1.90;99.90;;;;;;625659;226;26552;-73
2022/01/21 02:50:02;;;;;;;3.67;2.60;;;-1.80;99.90;;;;;;630777;226;26583;-73
2022/01/21 02:52:40;;;;;;;3.97;2.30;;;-1.80;99.90;;;;;;631376;226;26594;-73
2022/01/21 02:54:56;;;;;;;5.17;2.30;;;-1.80;99.90;;;;;;627226;225;26585;-73
2022/01/21 02:57:24;;;;;;;6.73;2.37;;;-1.80;99.90;;;;;;630457;226;26895;-73
2022/01/21 02:59:51;;;;;;;2.23;2.03;;;-1.80;99.90;;;;;;627921;226;26792;-72
2022/01/21 03:02:18;;;;;;;3.10;2.30;;;-1.80;99.90;;;;;;628454;226;26797;-73
2022/01/21 03:04:57;;;;;;;4.33;2.37;;;-1.80;99.90;;;;;;633079;226;26632;-73
2022/01/21 03:07:13;;;;;;;3.90;2.40;;;-1.80;99.90;;;;;;633931;226;26826;-73
2022/01/21 03:09:40;;;;;;;3.80;2.40;;;-1.90;99.90;;;;;;631348;226;26588;-73
2022/01/21 03:12:08;;;;;;;6.03;2.30;;;-1.80;99.90;;;;;;633879;226;26599;-73
2022/01/21 03:14:36;;;;;;;4.23;2.27;;;-1.90;99.90;;;;;;628490;225;26613;-73
2022/01/21 03:17:04;;;;;;;2.13;1.90;;;-1.80;99.90;;;;;;627616;226;26510;-73
2022/01/21 03:19:32;;;;;;;3.17;1.93;;;-1.80;99.90;;;;;;629639;226;26553;-72
2022/01/21 03:22:01;;;;;;;4.03;2.07;;;-1.90;99.90;;;;;;627874;225;26589;-73
2022/01/21 03:24:27;;;;;;;5.77;2.40;;;-1.70;99.90;;;;;;630113;226;26652;-73
2022/01/21 03:26:54;;;;;;;4.33;2.30;;;-1.80;99.90;;;;;;627727;228;26809;-73
2022/01/21 03:29:21;;;;;;;6.63;2.13;;;-1.80;99.90;;;;;;626018;228;26589;-73
2022/01/21 03:31:48;;;;;;;4.47;2.50;;;-1.80;99.90;;;;;;632121;225;26825;-73
2022/01/21 03:34:15;;;;;;;4.93;2.67;;;-1.80;99.90;;;;;;635443;226;26558;-73
2022/01/21 03:36:43;;;;;;;5.93;2.13;;;-1.80;99.90;;;;;;635201;226;26886;-73
2022/01/21 03:39:11;;;;;;;6.57;2.70;;;-1.90;99.90;;;;;;622181;231;26556;-73
2022/01/21 03:41:39;;;;;;;5.03;2.93;;;-1.90;99.90;;;;;;635096;226;26576;-73
2022/01/21 03:44:05;;;;;;;3.57;2.57;;;-1.90;99.90;;;;;;636859;225;26769;-73
2022/01/21 03:46:32;;;;;;;5.27;2.40;;;-1.90;99.90;;;;;;637948;225;26530;-73
2022/01/21 03:49:02;;;;;;;4.07;2.37;;;-1.90;99.90;;;;;;637887;225;26777;-72
2022/01/21 03:51:27;;;;;;;3.27;2.40;;;-2.00;99.90;;;;;;637554;225;26552;-72
2022/01/21 03:53:54;;;;;;;5.73;2.17;;;-1.90;99.90;;;;;;636607;225;26769;-73
2022/01/21 03:56:21;;;;;;;6.63;2.43;;;-2.00;99.90;;;;;;630150;226;26600;-76
2022/01/21 03:58:48;;;;;;;2.70;2.50;;;-2.00;99.90;;;;;;629161;226;26813;-75
2022/01/21 04:01:17;;;;;;;2.80;2.10;;;-2.00;99.90;;;;;;626719;229;26567;-77
2022/01/21 04:03:44;;;;;;;3.80;2.33;;;-2.00;99.90;;;;;;628648;225;26587;-76
2022/01/21 04:06:11;;;;;;;6.07;2.47;;;-2.10;99.90;;;;;;632680;226;26609;-76
2022/01/21 04:08:38;;;;;;;5.43;2.30;;;-2.00;99.90;;;;;;636742;225;26519;-74
2022/01/21 04:11:06;;;;;;;7.37;2.80;;;-2.00;99.90;;;;;;635592;223;26569;-74
2022/01/21 04:13:34;;;;;;;4.77;2.67;;;-2.10;99.90;;;;;;629880;225;26801;-74
2022/01/21 04:16:00;;;;;;;6.00;2.37;;;-2.10;99.90;;;;;;627960;225;26856;-74
2022/01/21 04:18:27;;;;;;;4.27;2.27;;;-2.10;99.90;;;;;;632143;226;26790;-74
2022/01/21 04:20:54;;;;;;;3.73;2.50;;;-2.20;99.90;;;;;;633287;225;26837;-74
2022/01/21 04:23:22;;;;;;;3.73;2.40;;;-2.20;99.90;;;;;;631419;225;26601;-74
2022/01/21 04:25:50;;;;;;;6.57;2.30;;;-2.20;99.90;;;;;;628366;225;26549;-74
2022/01/21 04:28:18;;;;;;;5.27;2.57;;;-2.20;99.90;;;;;;626402;226;26604;-74
2022/01/21 04:30:46;;;;;;;3.83;2.53;;;-2.10;99.90;;;;;;627181;226;26610;-74
2022/01/21 04:33:13;;;;;;;3.20;2.10;;;-2.20;99.90;;;;;;630139;225;26630;-74
2022/01/21 04:35:41;;;;;;;6.30;2.70;;;-2.20;99.90;;;;;;615622;230;26566;-74
2022/01/21 04:38:10;;;;;;;5.07;2.47;;;-2.20;99.90;;;;;;614708;228;26794;-74
2022/01/21 04:40:42;;;;;;;6.30;3.00;;;-2.10;99.90;;;;;;601795;235;26881;-74
2022/01/21 04:48:08;;;;;;;2.50;2.30;;;-2.20;99.90;;;;;;612918;234;26629;-74
2022/01/21 04:50:51;;;;;;;2.33;2.13;;;-2.20;99.90;;;;;;612879;228;26653;-74
2022/01/21 04:53:07;;;;;;;3.33;2.60;;;-2.20;99.90;;;;;;600617;239;26656;-74
2022/01/21 04:55:35;;;;;;;4.03;2.57;;;-2.30;99.90;;;;;;612940;233;26617;-74
2022/01/21 04:58:02;;;;;;;5.63;2.73;;;-2.30;99.90;;;;;;601360;238;26684;-74
2022/01/21 05:00:29;;;;;;;5.90;2.43;;;-2.20;99.90;;;;;;601358;236;26644;-74
2022/01/21 05:02:57;;;;;;;6.10;2.50;;;-2.20;99.90;;;;;;612900;233;27258;-74
2022/01/21 05:05:24;;;;;;;7.40;3.03;;;-2.20;99.90;;;;;;601409;238;26880;-73
2022/01/21 05:07:52;;;;;;;3.47;1.90;;;-2.30;99.90;;;;;;612872;233;26822;-74
2022/01/21 05:10:19;;;;;;;3.70;2.73;;;-2.30;99.90;;;;;;601383;238;26639;-74
2022/01/21 05:12:47;;;;;;;6.17;2.67;;;-2.30;99.90;;;;;;612911;235;26612;-74
2022/01/21 05:15:26;;;;;;;3.33;2.13;;;-2.40;99.90;;;;;;612914;234;26623;-74
2022/01/21 05:17:48;;;;;;;4.03;2.83;;;-2.40;99.90;;;;;;600779;236;26875;-74
2022/01/21 05:20:11;;;;;;;4.77;2.73;;;-2.40;99.90;;;;;;612540;234;26876;-74
2022/01/21 05:22:38;;;;;;;4.30;2.30;;;-2.40;99.90;;;;;;601854;237;26893;-74
2022/01/21 05:25:06;;;;;;;3.77;2.40;;;-2.40;99.90;;;;;;603238;237;26571;-74
2022/01/21 05:27:33;;;;;;;2.87;2.60;;;-2.40;99.90;;;;;;613923;233;26629;-74
2022/01/21 05:30:00;;;;;;;4.57;2.40;;;-2.40;99.90;;;;;;602217;232;26643;-73
2022/01/21 05:32:27;;;;;;;4.60;2.57;;;-2.40;99.90;;;;;;613580;233;26866;-74
2022/01/21 05:34:54;;;;;;;4.67;2.70;;;-2.40;99.90;;;;;;601948;239;26581;-74
2022/01/21 05:37:22;;;;;;;10.07;3.27;;;-2.40;99.90;;;;;;613447;233;26812;-74
2022/01/21 05:39:49;;;;;;;5.77;2.80;;;-2.30;99.90;;;;;;613470;234;26559;-74
2022/01/21 05:42:16;;;;;;;6.93;2.40;;;-2.30;99.90;;;;;;601696;238;26865;-74
2022/01/21 05:47:26;;;;;;;2.97;2.50;;;-2.40;99.90;;;;;;600767;238;26823;-74
2022/01/21 05:49:53;;;;;;;4.03;2.30;;;-2.40;99.90;;;;;;613224;233;26793;-73
2022/01/21 05:52:28;;;;;;;6.07;2.67;;;-2.40;99.90;;;;;;613276;233;26583;-74
2022/01/21 05:54:48;;;;;;;5.80;2.40;;;-2.50;99.90;;;;;;601306;238;27238;-74
2022/01/21 05:57:18;;;;;;;7.73;2.20;;;-2.40;99.90;;;;;;613326;233;26557;-74
2022/01/21 05:59:44;;;;;;;5.53;3.13;;;-2.40;99.90;;;;;;601388;238;26642;-74
2022/01/21 06:02:12;;;;;;;7.40;2.80;;;-2.40;99.90;;;;;;613004;233;26654;-74
2022/01/21 06:04:39;;;;;;;4.80;2.60;;;-2.40;99.90;;;;;;601366;239;26669;-74
2022/01/21 06:07:06;;;;;;;4.13;2.50;;;-2.50;99.90;;;;;;613015;233;26628;-74
2022/01/21 06:09:33;;;;;;;8.60;2.40;;;-2.40;99.90;;;;;;601467;238;26866;-74
2022/01/21 06:12:00;;;;;;;6.70;2.70;;;-2.30;99.90;;;;;;612985;231;26602;-74
2022/01/21 06:14:28;;;;;;;5.53;2.53;;;-2.30;99.90;;;;;;611797;234;26838;-74
2022/01/21 06:16:55;;;;;;;2.50;2.37;;;-2.30;99.90;;;;;;635120;221;26536;-74
2022/01/21 06:19:22;;;;;;;3.80;2.43;;;-2.40;99.90;;;;;;635124;226;26778;-74
2022/01/21 06:21:50;;;;;;;5.07;2.63;;;-2.30;99.90;;;;;;635114;226;26561;-74
2022/01/21 06:24:18;;;;;;;6.20;2.60;;;-2.30;99.90;;;;;;635093;226;26539;-74
2022/01/21 06:26:45;;;;;;;4.30;2.80;;;-2.30;99.90;;;;;;635116;226;26556;-74
2022/01/21 06:29:12;;;;;;;4.57;3.27;;;-2.30;99.90;;;;;;635131;226;26577;-74
2022/01/21 06:31:39;;;;;;;5.10;2.93;;;-2.40;99.90;;;;;;635114;226;26809;-74
2022/01/21 06:34:07;;;;;;;4.20;2.90;;;-2.40;99.90;;;;;;635702;224;26523;-74
2022/01/21 06:36:34;;;;;;;6.53;3.03;;;-2.40;99.90;;;;;;636884;226;26796;-73
2022/01/21 06:39:01;;;;;;;4.43;2.53;;;-2.40;99.90;;;;;;636293;226;26540;-74
2022/01/21 06:41:28;;;;;;;7.17;2.67;;;-2.40;99.90;;;;;;636073;221;26827;-74
2022/01/21 06:43:56;;;;;;;9.30;2.90;;;-2.30;99.90;;;;;;635942;226;26602;-74
2022/01/21 06:46:24;;;;;;;5.77;3.13;;;-2.30;99.90;;;;;;635778;221;26582;-74
2022/01/21 06:48:52;;;;;;;4.03;2.50;;;-2.30;99.90;;;;;;635766;226;26650;-74
2022/01/21 06:51:19;;;;;;;4.63;2.63;;;-2.30;99.90;;;;;;635765;226;26835;-74
2022/01/21 06:53:47;;;;;;;5.27;2.60;;;-2.30;99.90;;;;;;635480;226;26598;-74
2022/01/21 06:56:14;;;;;;;3.80;2.70;;;-2.20;99.90;;;;;;632229;225;26861;-74
2022/01/21 06:58:41;;;;;;;3.37;2.83;;;-2.30;99.90;;;;;;632000;225;26589;-74
2022/01/21 07:01:09;;;;;;;7.83;2.80;;;-2.20;99.90;;;;;;629837;225;26841;-74
2022/01/21 07:03:36;;;;;;;5.03;2.80;;;-2.30;99.90;;;;;;629101;226;26597;-74
2022/01/21 07:06:04;;;;;;;6.20;2.60;;;-2.20;99.90;;;;;;629309;225;26579;-75
2022/01/21 07:08:34;;;;;;;6.63;2.90;;;-2.20;99.90;;;;;;629032;228;26527;-74
2022/01/21 07:11:00;;;;;;;5.07;2.50;;;-2.10;99.90;;;;;;629145;228;26612;-74
2022/01/21 07:13:27;;;;;;;6.67;2.87;;;-2.10;99.90;;;;;;628479;228;26760;-74
2022/01/21 07:15:54;;;;;;;5.50;2.73;;;-2.10;99.90;;;;;;627640;228;26527;-76
2022/01/21 07:18:22;;;;;;;6.83;2.83;;;-1.90;99.90;;;;;;629156;226;26842;-73
2022/01/21 07:20:49;;;;;;;4.10;2.87;;;-2.20;99.90;;;;;;631810;225;26626;-74
2022/01/21 07:23:16;;;;;;;2.60;2.40;;;-2.20;99.90;;;;;;627837;228;26807;-74
2022/01/21 07:25:46;;;;;;;6.30;2.97;;;-2.20;99.90;;;;;;628479;225;26587;-74
2022/01/21 07:28:13;;;;;;;7.37;3.53;;;-2.10;99.90;;;;;;627453;226;26546;-74
2022/01/21 07:30:41;;;;;;;4.60;2.60;;;-2.10;99.90;;;;;;628532;226;26656;-74
2022/01/21 07:33:09;;;;;;;5.17;2.97;;;-2.20;99.90;;;;;;631559;225;26628;-75
2022/01/21 07:35:36;;;;;;;4.37;2.90;;;-2.20;99.90;;;;;;632004;225;26592;-74
2022/01/21 07:38:04;;;;;;;8.50;2.60;;;-2.10;99.90;;;;;;627032;229;26569;-74
2022/01/21 07:40:31;;;;;;;4.10;2.60;;;-2.10;99.90;;;;;;628670;228;26890;-74
2022/01/21 07:42:58;;;;;;;3.83;2.73;;;-2.10;99.90;;;;;;628728;229;26793;-74
2022/01/21 07:45:25;;;;;;;6.77;3.17;;;-2.20;99.90;;;;;;628985;226;26815;-74
2022/01/21 07:47:52;;;;;;;7.93;2.63;;;-2.10;99.90;;;;;;630331;227;26594;-74
2022/01/21 07:50:20;;;;;;;5.17;3.07;;;-2.00;99.90;;;;;;629804;227;26528;-74
2022/01/21 07:52:48;;;;;;;7.70;3.17;;;-2.00;99.90;;;;;;629631;228;26596;-74
2022/01/21 07:55:15;;;;;;;5.03;3.10;;;-1.90;99.90;;;;;;629487;223;26600;-74
2022/01/21 07:57:43;;;;;;;9.17;3.13;;;-1.80;99.90;;;;;;628844;225;26648;-75
2022/01/21 08:00:11;;;;;;;8.37;2.80;;;-1.80;99.90;;;;;;631346;226;26591;-74
2022/01/21 08:02:38;;;;;;;7.17;2.60;;;-1.90;99.90;;;;;;628927;226;26890;-74
2022/01/21 08:05:06;;;;;;;4.80;3.30;;;-1.90;99.90;;;;;;634782;225;26629;-74
2022/01/21 08:07:33;;;;;;;7.47;2.97;;;-2.00;99.90;;;;;;634909;225;26638;-74
2022/01/21 08:10:00;;;;;;;7.27;3.47;;;-1.90;99.90;;;;;;625677;228;26586;-74
2022/01/21 08:12:27;;;;;;;3.57;2.33;;;-1.90;99.90;;;;;;626978;225;26811;-74
2022/01/21 08:14:54;;;;;;;15.40;4.27;;;-1.90;99.90;;;;;;629102;226;26587;-74
2022/01/21 08:17:22;;;;;;;10.23;3.40;;;-1.80;99.90;;;;;;637390;225;27322;-73
2022/01/21 08:19:49;;;;;;;6.63;3.53;;;-1.80;99.90;;;;;;631941;226;26556;-73
2022/01/21 08:22:16;;;;;;;9.53;3.20;;;-1.70;99.90;;;;;;627440;225;26927;-73
2022/01/21 08:24:44;;;;;;;6.03;3.33;;;-1.80;99.90;;;;;;626314;229;26544;-73
2022/01/21 08:27:12;;;;;;;8.50;3.60;;;-1.80;99.90;;;;;;625838;229;26547;-73
2022/01/21 08:29:40;;;;;;;4.73;2.63;;;-1.70;99.90;;;;;;613496;233;26608;-73
2022/01/21 08:32:07;;;;;;;5.17;3.00;;;-1.70;99.90;;;;;;613777;233;26669;-73
2022/01/21 08:34:35;;;;;;;9.23;3.80;;;-1.70;99.90;;;;;;606573;236;26609;-73
2022/01/21 08:37:03;;;;;;;8.03;3.03;;;-1.60;99.90;;;;;;621442;231;26684;-73
2022/01/21 08:39:30;;;;;;;6.90;3.03;;;-1.60;99.90;;;;;;612760;235;26900;-73
2022/01/21 08:41:58;;;;;;;6.67;3.13;;;-1.70;99.90;;;;;;603322;235;26677;-73
2022/01/21 08:44:26;;;;;;;8.57;2.97;;;-1.60;99.90;;;;;;615100;230;26596;-75
2022/01/21 08:46:54;;;;;;;6.60;2.80;;;-1.50;99.90;;;;;;633246;226;26557;-73
2022/01/21 08:49:21;;;;;;;8.33;3.17;;;-1.60;99.90;;;;;;629960;221;26619;-73
2022/01/21 08:51:53;;;;;;;7.07;3.27;;;-1.50;99.90;;;;;;628000;226;26639;-73
2022/01/21 08:54:18;;;;;;;4.27;2.73;;;-1.40;99.90;;;;;;628666;226;27252;-73
2022/01/21 08:56:45;;;;;;;4.27;2.70;;;-1.40;99.90;;;;;;632552;226;26601;-73
2022/01/21 08:59:13;;;;;;;12.37;3.10;;;-1.20;99.90;;;;;;628991;228;26593;-73
2022/01/21 09:01:41;;;;;;;5.07;2.87;;;-1.20;99.90;;;;;;632396;226;26619;-73
2022/01/21 09:04:09;;;;;;;8.63;3.03;;;-1.10;99.90;;;;;;626873;228;26541;-73
2022/01/21 09:06:36;;;;;;;6.37;3.30;;;-1.20;99.90;;;;;;628982;226;26540;-73
2022/01/21 09:09:03;;;;;;;5.53;2.97;;;-1.00;99.90;;;;;;635751;226;26797;-73
2022/01/21 09:11:30;;;;;;;8.43;3.33;;;-0.80;99.90;;;;;;630055;226;26824;-73
2022/01/21 09:13:58;;;;;;;3.97;2.70;;;-0.80;99.90;;;;;;626039;229;26595;-73
2022/01/21 09:16:25;;;;;;;10.17;3.30;;;-0.80;99.90;;;;;;625597;226;26820;-73
2022/01/21 09:18:54;;;;;;;9.97;3.77;;;-0.90;99.90;;;;;;626721;228;26676;-73
2022/01/21 09:21:20;;;;;;;7.47;3.40;;;-0.90;99.90;;;;;;632202;226;26568;-73
2022/01/21 09:23:48;;;;;;;7.80;2.97;;;-0.80;99.90;;;;;;628469;226;26800;-73
2022/01/21 09:26:15;;;;;;;11.50;3.50;;;-0.80;99.90;;;;;;633923;226;26610;-73
2022/01/21 09:28:42;;;;;;;12.73;3.57;;;-0.80;99.90;;;;;;628063;228;26593;-73
2022/01/21 09:31:09;;;;;;;8.53;3.60;;;-0.70;99.90;;;;;;625659;226;26610;-73
2022/01/21 09:33:36;;;;;;;9.77;4.03;;;-0.70;99.90;;;;;;626077;228;26821;-74
2022/01/21 09:36:04;;;;;;;14.33;3.53;;;-0.50;99.90;;;;;;626172;229;26549;-75
2022/01/21 09:38:31;;;;;;;4.80;3.07;;;-0.60;99.90;;;;;;628108;228;26601;-75
2022/01/21 09:40:59;;;;;;;6.97;3.27;;;-0.40;99.90;;;;;;628937;226;26854;-75
2022/01/21 09:43:26;;;;;;;6.63;2.70;;;-0.50;99.90;;;;;;630198;226;26566;-75
2022/01/21 09:45:54;;;;;;;6.30;3.27;;;-0.40;99.90;;;;;;632918;226;26597;-74
2022/01/21 09:48:23;;;;;;;10.27;2.70;;;-0.20;99.90;;;;;;626340;226;26554;-75
2022/01/21 09:50:51;;;;;;;10.70;3.53;;;-0.20;99.90;;;;;;630191;226;26612;-75
2022/01/21 09:53:18;;;;;;;6.97;2.70;;;-0.20;99.90;;;;;;627042;224;26580;-75
2022/01/21 09:55:45;;;;;;;5.07;3.13;;;-0.10;99.90;;;;;;633136;223;26595;-75
2022/01/21 09:58:13;;;;;;;6.57;2.60;;;-0.20;99.90;;;;;;627199;226;26547;-75
2022/01/21 10:00:40;;;;;;;7.23;2.97;;;-0.10;99.90;;;;;;627782;226;26562;-75
2022/01/21 10:03:07;;;;;;;10.83;3.40;;;0.10;99.90;;;;;;631111;226;26824;-74
2022/01/21 10:05:34;;;;;;;5.60;2.90;;;0.10;99.90;;;;;;628694;226;26539;-75
2022/01/21 10:08:01;;;;;;;11.70;3.30;;;0.10;99.90;;;;;;626137;224;26791;-75
2022/01/21 10:10:30;;;;;;;4.33;2.60;;;0.30;99.90;;;;;;628446;226;26591;-75
2022/01/21 10:13:02;;;;;;;10.37;3.60;;;0.30;99.90;;;;;;628982;228;26535;-75
2022/01/21 10:15:25;;;;;;;5.23;2.93;;;0.20;99.90;;;;;;626389;228;26551;-75
2022/01/21 10:17:57;;;;;;;7.87;3.33;;;0.20;99.90;;;;;;628772;228;26577;-75
2022/01/21 10:20:25;;;;;;;10.77;3.27;;;0.30;99.90;;;;;;635531;226;26852;-75
2022/01/21 10:22:58;;;;;;;5.47;2.70;;;0.30;99.90;;;;;;632722;226;26590;-74
2022/01/21 10:25:25;;;;;;;4.27;2.83;;;0.40;99.90;;;;;;625995;227;26570;-76
2022/01/21 10:27:53;;;;;;;8.43;4.07;;;0.50;99.90;;;;;;625932;228;26602;-74
2022/01/21 10:30:22;;;;;;;7.13;3.50;;;0.40;99.90;;;;;;624772;230;27252;-73
2022/01/21 10:32:50;;;;;;;6.60;2.90;;;0.50;99.90;;;;;;626710;228;26594;-73
2022/01/21 10:35:19;;;;;;;7.13;3.07;;;0.40;99.90;;;;;;632256;226;26576;-73
2022/01/21 10:37:46;;;;;;;8.43;3.20;;;0.50;99.90;;;;;;630972;226;26832;-73
2022/01/21 10:40:16;;;;;;;3.53;3.07;;;0.60;99.90;;;;;;626078;227;26581;-73
2022/01/21 10:42:42;;;;;;;6.63;3.00;;;0.70;99.90;;;;;;626453;228;26603;-73
2022/01/21 10:45:09;;;;;;;5.73;2.80;;;0.70;99.90;;;;;;627442;228;26594;-73
2022/01/21 10:47:36;;;;;;;7.23;2.83;;;0.70;99.90;;;;;;631519;226;26578;-73
2022/01/21 10:50:11;;;;;;;12.43;4.17;;;0.80;99.90;;;;;;627173;226;26793;-73
2022/01/21 10:52:38;;;;;;;8.13;3.50;;;1.00;99.90;;;;;;632764;226;26657;-73
2022/01/21 10:55:22;;;;;;;5.37;3.17;;;1.30;99.90;;;;;;625450;226;26543;-73
2022/01/21 10:57:49;;;;;;;6.80;3.73;;;1.30;99.90;;;;;;625645;228;26554;-73
2022/01/21 11:00:17;;;;;;;14.10;2.97;;;1.20;99.90;;;;;;625168;226;26595;-73
2022/01/21 11:02:48;;;;;;;6.00;2.83;;;1.10;99.90;;;;;;632949;226;26580;-72
2022/01/21 11:05:15;;;;;;;6.57;2.83;;;1.10;99.90;;;;;;627736;226;26589;-73
2022/01/21 11:07:46;;;;;;;6.17;2.70;;;1.10;99.90;;;;;;634821;226;26547;-73
2022/01/21 11:10:25;;;;;;;9.97;3.33;;;1.10;99.90;;;;;;626724;226;26536;-72
2022/01/21 11:12:52;;;;;;;6.53;2.80;;;1.10;99.90;;;;;;628037;226;26608;-72
2022/01/21 11:15:20;;;;;;;8.77;2.80;;;1.40;99.90;;;;;;626719;226;26519;-72
2022/01/21 11:17:56;;;;;;;5.20;2.67;;;1.40;99.90;;;;;;627745;228;26572;-71
2022/01/21 11:20:25;;;;;;;6.37;2.90;;;1.30;99.90;;;;;;626228;225;26539;-71
2022/01/21 11:22:53;;;;;;;4.87;2.83;;;1.30;99.90;;;;;;629030;226;26812;-72
2022/01/21 11:25:25;;;;;;;12.70;3.97;;;1.30;99.90;;;;;;631265;226;26592;-72
2022/01/21 11:27:55;;;;;;;4.47;2.63;;;1.50;99.90;;;;;;635021;226;26823;-72
2022/01/21 11:30:22;;;;;;;6.60;2.50;;;1.40;99.90;;;;;;627179;226;26557;-71
2022/01/21 11:32:50;;;;;;;3.97;2.23;;;1.40;99.90;;;;;;629461;226;26540;-73
2022/01/21 11:35:17;;;;;;;5.10;3.00;;;1.40;99.90;;;;;;632912;226;26837;-73
2022/01/21 11:37:44;;;;;;;5.23;2.57;;;1.50;99.90;;;;;;632331;225;26585;-73
2022/01/21 11:40:11;;;;;;;5.40;2.90;;;1.50;99.90;;;;;;635254;226;26956;-73
2022/01/21 11:42:39;;;;;;;7.87;2.70;;;1.60;99.90;;;;;;629419;226;26603;-73
2022/01/21 11:45:23;;;;;;;4.90;2.47;;;1.80;99.90;;;;;;633400;225;26587;-77
2022/01/21 11:47:49;;;;;;;3.43;2.07;;;1.80;99.90;;;;;;628233;225;26595;-74
2022/01/21 11:50:05;;;;;;;4.47;2.30;;;1.60;99.90;;;;;;623758;227;27447;-75
2022/01/21 11:52:34;;;;;;;5.13;2.30;;;1.70;99.90;;;;;;625085;228;26638;-75
2022/01/21 11:54:59;;;;;;;2.97;2.40;;;1.80;99.90;;;;;;624591;229;26594;-75
2022/01/21 11:57:26;;;;;;;8.47;3.07;;;1.70;99.90;;;;;;625079;229;26840;-75
2022/01/21 12:00:17;;;;;;;6.60;2.47;;;1.80;99.90;;;;;;625159;228;26774;-75
2022/01/21 12:02:36;;;;;;;4.67;2.40;;;2.00;99.90;;;;;;624381;227;26638;-75
2022/01/21 12:05:03;;;;;;;7.37;2.83;;;1.90;99.90;;;;;;625342;229;27129;-74
2022/01/21 12:07:48;;;;;;;7.07;3.40;;;1.90;99.90;;;;;;625305;228;26527;-74
2022/01/21 12:10:30;;;;;;;6.07;2.27;;;1.90;99.90;;;;;;625355;227;26552;-74
2022/01/21 12:13:01;;;;;;;3.23;2.30;;;1.90;99.90;;;;;;625474;230;26530;-74
2022/01/21 12:21:25;;;;;;;5.93;2.37;;;1.90;99.90;;;;;;629539;225;26841;-74
2022/01/21 12:23:52;;;;;;;6.83;2.77;;;2.10;99.90;;;;;;630602;225;26883;-74
2022/01/21 12:26:20;;;;;;;5.57;2.90;;;2.20;99.90;;;;;;628827;223;26631;-74
2022/01/21 12:29:22;;;;;;;3.43;2.37;;;2.10;99.90;;;;;;630517;226;26571;-74
2022/01/21 12:31:55;;;;;;;2.73;2.00;;;2.20;99.90;;;;;;631699;223;26616;-74
2022/01/21 12:34:18;;;;;;;3.97;2.83;;;2.30;99.60;;;;;;630701;226;26606;-73
2022/01/21 12:36:48;;;;;;;3.93;2.07;;;2.30;99.60;;;;;;630054;226;26588;-74
2022/01/21 12:39:26;;;;;;;3.40;1.97;;;2.30;99.10;;;;;;629283;228;26602;-74
2022/01/21 12:41:53;;;;;;;3.97;2.50;;;2.40;99.00;;;;;;629397;225;26868;-74
2022/01/21 12:44:30;;;;;;;4.10;2.07;;;2.40;98.70;;;;;;626213;228;26585;-74
2022/01/21 12:46:56;;;;;;;5.10;2.33;;;2.40;98.70;;;;;;626360;228;26593;-74
2022/01/21 12:49:44;;;;;;;4.30;2.20;;;2.30;98.90;;;;;;629293;225;26599;-74
2022/01/21 12:52:13;;;;;;;6.33;2.60;;;2.30;99.50;;;;;;634214;226;26539;-74
2022/01/21 12:57:15;;;;;;;3.90;2.30;;;2.20;99.90;;;;;;630263;225;26597;-74
2022/01/21 12:59:43;;;;;;;3.60;2.13;;;2.10;99.90;;;;;;633668;226;26584;-74
2022/01/21 13:02:10;;;;;;;5.17;2.37;;;2.10;99.90;;;;;;625787;228;26602;-74
2022/01/21 13:04:48;;;;;;;4.40;2.67;;;2.20;99.90;;;;;;627340;228;26593;-74
2022/01/21 13:07:31;;;;;;;7.07;2.53;;;2.20;99.90;;;;;;626706;226;26594;-75
2022/01/21 13:10:15;;;;;;;2.67;2.20;;;2.30;99.90;;;;;;635937;225;26828;-75
2022/01/21 13:12:47;;;;;;;2.37;2.10;;;2.30;99.90;;;;;;629457;226;26590;-75
2022/01/21 13:15:10;;;;;;;3.03;2.37;;;2.30;99.90;;;;;;628394;228;26864;-75
2022/01/21 13:17:37;;;;;;;3.97;2.50;;;2.30;99.90;;;;;;626209;228;26530;-75
2022/01/21 13:20:04;;;;;;;4.83;2.23;;;2.30;99.50;;;;;;628530;229;26824;-75
2022/01/21 13:22:35;;;;;;;2.53;2.33;;;2.30;99.00;;;;;;627655;227;26607;-74
2022/01/21 13:25:06;;;;;;;5.53;2.23;;;2.30;99.00;;;;;;627483;225;26832;-74
2022/01/21 13:27:33;;;;;;;3.53;2.10;;;2.30;99.10;;;;;;626329;226;26560;-75
2022/01/21 13:30:05;;;;;;;3.50;2.30;;;2.30;99.00;;;;;;626175;226;26808;-75
2022/01/21 13:32:32;;;;;;;3.07;2.40;;;2.40;99.10;;;;;;628593;226;26604;-75
2022/01/21 13:35:09;;;;;;;3.53;2.07;;;2.40;99.20;;;;;;631844;226;26586;-74
2022/01/21 13:37:35;;;;;;;4.93;2.30;;;2.40;99.20;;;;;;631484;225;26789;-75
2022/01/21 13:40:05;;;;;;;2.40;2.20;;;3.10;99.40;;;;;;626726;226;26579;-75
2022/01/21 13:42:32;;;;;;;6.40;2.40;;;2.40;99.10;;;;;;626471;227;26568;-76